createdAt,value
2019-04-27T00:02:29.082Z,95538.25
2019-04-27T00:05:06.624Z,95540.11
2019-04-27T00:08:02.973Z,95538.11
2019-04-27T00:10:43.636Z,95537.95
2019-04-27T00:13:11.155Z,95540.06
2019-04-27T00:15:53.857Z,95535.03
2019-04-27T00:18:36.785Z,95533.06
2019-04-27T00:21:20.747Z,95526.45
2019-04-27T00:23:48.239Z,95526.91
2019-04-27T00:26:15.557Z,95534.53
2019-04-27T00:28:43.413Z,95530.09
2019-04-27T00:31:11.035Z,95522.27
2019-04-27T00:33:38.494Z,95531.35
2019-04-27T00:36:13.738Z,95530.25
2019-04-27T00:38:53.542Z,95520.20
2019-04-27T00:41:20.916Z,95526.13
2019-04-27T00:43:50.625Z,95514.70
2019-04-27T00:46:17.949Z,95514.40
2019-04-27T00:48:45.416Z,95508.36
2019-04-27T00:51:14.477Z,95510.17
2019-04-27T00:53:43.512Z,95505.94
2019-04-27T00:56:26.882Z,95510.38
2019-04-27T00:59:19.677Z,95510.67
2019-04-27T01:02:05.712Z,95509.34
2019-04-27T01:04:34.028Z,95505.14
2019-04-27T01:07:02.921Z,95506.63
2019-04-27T01:09:30.886Z,95504.31
2019-04-27T01:11:58.217Z,95507.13
2019-04-27T01:14:25.527Z,95506.63
2019-04-27T01:16:52.872Z,95508.88
2019-04-27T01:19:20.175Z,95511.98
2019-04-27T01:21:47.536Z,95500.67
2019-04-27T01:24:15.010Z,95501.84
2019-04-27T01:27:05.115Z,95503.07
2019-04-27T01:29:32.659Z,95508.55
2019-04-27T01:32:00.061Z,95505.67
2019-04-27T01:34:29.413Z,95497.60
2019-04-27T01:36:56.795Z,95503.70
2019-04-27T01:39:24.295Z,95501.35
2019-04-27T01:41:51.576Z,95502.95
2019-04-27T01:44:19.392Z,95510.50
2019-04-27T01:46:48.687Z,95507.73
2019-04-27T01:49:16.138Z,95501.41
2019-04-27T01:51:43.441Z,95513.13
2019-04-27T01:54:13.361Z,95506.71
2019-04-27T01:56:40.673Z,95496.48
2019-04-27T01:59:08.691Z,95502.01
2019-04-27T02:01:58.840Z,95503.48
2019-04-27T02:04:44.875Z,95499.91
2019-04-27T02:07:12.193Z,95502.72
2019-04-27T02:09:39.518Z,95503.70
2019-04-27T02:12:06.974Z,95503.58
2019-04-27T02:14:34.303Z,95501.86
2019-04-27T02:17:01.704Z,95502.91
2019-04-27T02:19:29.626Z,95498.77
2019-04-27T02:21:57.022Z,95508.28
2019-04-27T02:24:24.318Z,95508.09
2019-04-27T02:26:51.683Z,95509.52
2019-04-27T02:29:44.408Z,95508.42
2019-04-27T02:32:31.264Z,95513.27
2019-04-27T02:35:09.174Z,95509.34
2019-04-27T02:37:36.883Z,95501.69
2019-04-27T02:40:20.439Z,95499.23
2019-04-27T02:42:50.380Z,95498.44
2019-04-27T02:45:19.588Z,95490.35
2019-04-27T02:47:49.022Z,95501.60
2019-04-27T02:50:16.564Z,95504.03
2019-04-27T02:52:50.080Z,95505.13
2019-04-27T02:55:19.646Z,95505.36
2019-04-27T02:57:46.453Z,95505.24
2019-04-27T03:00:13.997Z,95513.88
2019-04-27T03:02:56.950Z,95505.77
2019-04-27T03:05:26.722Z,95511.30
2019-04-27T03:07:54.053Z,95509.77
2019-04-27T03:10:21.870Z,95504.48
2019-04-27T03:12:56.088Z,95504.08
2019-04-27T03:15:54.819Z,95504.30
2019-04-27T03:18:40.313Z,95512.48
2019-04-27T03:21:13.098Z,95516.19
2019-04-27T03:23:41.281Z,95518.10
2019-04-27T03:26:14.529Z,95521.44
2019-04-27T03:28:41.888Z,95508.47
2019-04-27T03:31:13.552Z,95502.34
2019-04-27T03:33:42.610Z,95513.30
2019-04-27T03:36:12.484Z,95505.53
2019-04-27T03:38:39.426Z,95506.86
2019-04-27T03:41:06.439Z,95506.39
2019-04-27T03:43:33.766Z,95491.59
2019-04-27T03:46:01.085Z,95491.82
2019-04-27T03:48:29.394Z,95492.86
2019-04-27T03:51:25.731Z,95481.13
2019-04-27T03:54:06.616Z,95483.27
2019-04-27T03:56:39.474Z,95490.92
2019-04-27T03:59:24.347Z,95485.03
2019-04-27T04:01:51.636Z,95486.68
2019-04-27T04:04:19.622Z,95483.73
2019-04-27T04:06:49.208Z,95483.73
2019-04-27T04:09:16.192Z,95484.38
2019-04-27T04:11:53.495Z,95486.17
2019-04-27T04:14:21.408Z,95481.13
2019-04-27T04:16:58.984Z,95484.00
2019-04-27T04:19:24.208Z,95486.93
2019-04-27T04:21:51.503Z,95483.16
2019-04-27T04:24:19.927Z,95484.11
2019-04-27T04:26:50.007Z,95488.00
2019-04-27T04:29:16.786Z,95492.12
2019-04-27T04:31:44.073Z,95486.23
2019-04-27T04:34:12.150Z,95486.51
2019-04-27T04:36:42.649Z,95490.34
2019-04-27T04:39:12.045Z,95484.34
2019-04-27T04:42:13.630Z,95485.09
2019-04-27T04:45:10.647Z,95488.26
2019-04-27T04:47:54.538Z,95488.08
2019-04-27T04:50:22.775Z,95492.76
2019-04-27T04:52:50.353Z,95495.80
2019-04-27T04:55:20.134Z,95494.33
2019-04-27T04:57:49.101Z,95494.38
2019-04-27T05:00:16.163Z,95499.80
2019-04-27T05:02:43.456Z,95500.88
2019-04-27T05:05:10.758Z,95502.45
2019-04-27T05:07:38.752Z,95504.74
2019-04-27T05:10:06.499Z,95509.84
2019-04-27T05:12:33.818Z,95507.00
2019-04-27T05:15:01.194Z,95515.28
2019-04-27T05:17:29.647Z,95507.30
2019-04-27T05:19:59.042Z,95512.84
2019-04-27T05:22:26.493Z,95515.95
2019-04-27T05:24:59.769Z,95514.81
2019-04-27T05:27:29.022Z,95520.39
2019-04-27T05:29:56.944Z,95524.77
2019-04-27T05:32:24.262Z,95523.67
2019-04-27T05:34:51.553Z,95525.52
2019-04-27T05:37:27.670Z,95524.41
2019-04-27T05:39:48.713Z,95529.52
2019-04-27T05:42:17.149Z,95526.83
2019-04-27T05:45:22.795Z,95525.31
2019-04-27T05:47:55.160Z,95526.00
2019-04-27T05:50:35.271Z,95527.92
2019-04-27T05:52:51.696Z,95532.98
2019-04-27T05:55:19.244Z,95537.53
2019-04-27T05:57:46.702Z,95531.39
2019-04-27T06:00:15.616Z,95537.77
2019-04-27T06:02:45.093Z,95541.16
2019-04-27T06:05:12.439Z,95536.60
2019-04-27T06:07:39.757Z,95531.95
2019-04-27T06:10:07.238Z,95535.41
2019-04-27T06:12:34.799Z,95539.02
2019-04-27T06:15:02.163Z,95539.28
2019-04-27T06:17:30.019Z,95535.11
2019-04-27T06:19:59.431Z,95536.81
2019-04-27T06:22:29.409Z,95537.17
2019-04-27T06:24:57.165Z,95543.55
2019-04-27T06:27:24.460Z,95538.59
2019-04-27T06:29:51.786Z,95542.23
2019-04-27T06:32:19.226Z,95539.51
2019-04-27T06:34:46.608Z,95545.93
2019-04-27T06:37:13.936Z,95541.08
2019-04-27T06:39:41.255Z,95538.41
2019-04-27T06:42:16.628Z,95539.91
2019-04-27T06:44:39.393Z,95543.66
2019-04-27T06:47:07.010Z,95552.81
2019-04-27T06:49:34.317Z,95554.81
2019-04-27T06:52:01.596Z,95556.50
2019-04-27T06:54:29.041Z,95557.68
2019-04-27T06:56:56.292Z,95554.14
2019-04-27T06:59:23.708Z,95551.63
2019-04-27T07:01:50.993Z,95559.77
2019-04-27T07:04:19.615Z,95557.17
2019-04-27T07:06:55.409Z,95565.95
2019-04-27T07:09:16.305Z,95570.48
2019-04-27T07:11:43.624Z,95570.09
2019-04-27T07:14:11.718Z,95577.20
2019-04-27T07:16:39.342Z,95575.42
2019-04-27T07:19:06.734Z,95572.34
2019-04-27T07:21:34.061Z,95567.03
2019-04-27T07:24:01.347Z,95569.86
2019-04-27T07:26:30.217Z,95571.88
2019-04-27T07:28:59.608Z,95570.31
2019-04-27T07:31:27.157Z,95575.99
2019-04-27T07:33:54.504Z,95573.67
2019-04-27T07:36:21.834Z,95567.39
2019-04-27T07:38:49.172Z,95575.42
2019-04-27T07:41:16.479Z,95573.80
2019-04-27T07:44:05.923Z,95564.69
2019-04-27T07:46:35.591Z,95567.66
2019-04-27T07:49:02.892Z,95567.19
2019-04-27T07:51:33.723Z,95568.58
2019-04-27T07:53:59.422Z,95569.17
2019-04-27T07:56:26.730Z,95566.66
2019-04-27T07:58:54.079Z,95568.20
2019-04-27T08:01:21.414Z,95571.88
2019-04-27T08:03:49.142Z,95564.17
2019-04-27T08:06:16.512Z,95571.05
2019-04-27T08:08:43.862Z,95570.16
2019-04-27T08:11:11.454Z,95569.25
2019-04-27T08:13:39.355Z,95561.00
2019-04-27T08:16:08.612Z,95566.55
2019-04-27T08:18:36.161Z,95563.16
2019-04-27T08:21:03.522Z,95558.97
2019-04-27T08:23:30.883Z,95561.70
2019-04-27T08:25:58.892Z,95557.48
2019-04-27T08:28:42.898Z,95551.39
2019-04-27T08:31:45.275Z,95548.50
2019-04-27T08:34:30.949Z,95553.75
2019-04-27T08:36:58.434Z,95552.78
2019-04-27T08:39:27.453Z,95547.31
2019-04-27T08:41:54.802Z,95541.94
2019-04-27T08:44:22.094Z,95535.89
2019-04-27T08:46:49.616Z,95537.14
2019-04-27T08:49:18.253Z,95528.28
2019-04-27T08:51:56.340Z,95528.39
2019-04-27T08:54:15.154Z,95521.27
2019-04-27T08:56:42.474Z,95523.76
2019-04-27T08:59:09.806Z,95521.20
2019-04-27T09:01:37.139Z,95520.48
2019-04-27T09:04:04.494Z,95517.19
2019-04-27T09:06:32.723Z,95511.66
2019-04-27T09:09:07.213Z,95508.11
2019-04-27T09:11:49.575Z,95507.53
2019-04-27T09:14:49.479Z,95499.36
2019-04-27T09:17:23.922Z,95499.46
2019-04-27T09:20:04.139Z,95490.93
2019-04-27T09:22:31.487Z,95484.77
2019-04-27T09:24:59.494Z,95485.92
2019-04-27T09:27:28.905Z,95486.16
2019-04-27T09:29:56.274Z,95478.71
2019-04-27T09:32:23.633Z,95482.25
2019-04-27T09:34:51.023Z,95477.38
2019-04-27T09:37:18.285Z,95464.95
2019-04-27T09:39:46.058Z,95471.05
2019-04-27T09:42:13.677Z,95465.02
2019-04-27T09:44:40.965Z,95472.97
2019-04-27T09:47:08.427Z,95463.30
2019-04-27T09:49:36.646Z,95462.79
2019-04-27T09:52:06.341Z,95458.98
2019-04-27T09:54:33.916Z,95456.17
2019-04-27T09:57:01.282Z,95447.64
2019-04-27T09:59:28.619Z,95446.22
2019-04-27T10:01:57.679Z,95443.45
2019-04-27T10:04:26.328Z,95433.09
2019-04-27T10:06:54.022Z,95431.17
2019-04-27T10:09:21.335Z,95426.69
2019-04-27T10:11:48.753Z,95430.58
2019-04-27T10:14:16.384Z,95420.23
2019-04-27T10:16:44.034Z,95415.99
2019-04-27T10:19:11.364Z,95412.09
2019-04-27T10:21:39.362Z,95402.42
2019-04-27T10:24:06.702Z,95402.17
2019-04-27T10:26:34.141Z,95405.18
2019-04-27T10:29:01.852Z,95398.20
2019-04-27T10:31:29.214Z,95395.88
2019-04-27T10:33:56.563Z,95396.33
2019-04-27T10:36:39.079Z,95398.85
2019-04-27T10:39:08.474Z,95388.51
2019-04-27T10:41:36.951Z,95382.08
2019-04-27T10:44:05.810Z,95379.17
2019-04-27T10:46:33.820Z,95370.81
2019-04-27T10:49:01.175Z,95367.03
2019-04-27T10:51:28.570Z,95367.33
2019-04-27T10:53:55.902Z,95356.31
2019-04-27T10:56:23.234Z,95340.52
2019-04-27T10:58:50.570Z,95337.16
2019-04-27T11:01:18.041Z,95334.21
2019-04-27T11:04:16.718Z,95326.96
2019-04-27T11:06:50.523Z,95323.52
2019-04-27T11:09:18.019Z,95319.03
2019-04-27T11:11:46.354Z,95319.56
2019-04-27T11:14:15.852Z,95310.88
2019-04-27T11:16:43.203Z,95323.36
2019-04-27T11:19:10.566Z,95312.78
2019-04-27T11:21:37.905Z,95310.31
2019-04-27T11:24:05.283Z,95310.73
2019-04-27T11:26:32.665Z,95309.34
2019-04-27T11:28:59.954Z,95303.25
2019-04-27T11:31:27.494Z,95299.75
2019-04-27T11:33:56.646Z,95289.11
2019-04-27T11:36:49.627Z,95293.55
2019-04-27T11:39:19.691Z,95294.16
2019-04-27T11:41:46.275Z,95290.67
2019-04-27T11:44:15.278Z,95291.19
2019-04-27T11:46:42.833Z,95280.53
2019-04-27T11:49:10.177Z,95287.28
2019-04-27T11:51:37.564Z,95284.31
2019-04-27T11:54:05.002Z,95277.28
2019-04-27T11:56:32.447Z,95274.00
2019-04-27T11:58:59.769Z,95275.18
2019-04-27T12:01:27.345Z,95273.70
2019-04-27T12:03:55.656Z,95272.64
2019-04-27T12:06:23.320Z,95273.78
2019-04-27T12:08:50.700Z,95269.48
2019-04-27T12:11:18.100Z,95265.96
2019-04-27T12:13:46.111Z,95263.30
2019-04-27T12:16:15.625Z,95260.17
2019-04-27T12:18:43.119Z,95256.18
2019-04-27T12:21:10.582Z,95261.72
2019-04-27T12:23:41.200Z,95251.28
2019-04-27T12:26:09.151Z,95250.41
2019-04-27T12:28:50.088Z,95250.53
2019-04-27T12:31:28.168Z,95244.73
2019-04-27T12:33:56.021Z,95240.23
2019-04-27T12:36:25.712Z,95239.40
2019-04-27T12:38:53.382Z,95234.38
2019-04-27T12:41:20.737Z,95224.55
2019-04-27T12:43:48.065Z,95224.80
2019-04-27T12:46:16.020Z,95230.37
2019-04-27T12:48:43.760Z,95231.57
2019-04-27T12:51:11.438Z,95221.02
2019-04-27T12:54:01.535Z,95221.02
2019-04-27T12:56:57.797Z,95221.91
2019-04-27T12:59:44.248Z,95214.84
2019-04-27T13:02:12.042Z,95205.09
2019-04-27T13:04:39.359Z,95211.02
2019-04-27T13:07:08.024Z,95209.97
2019-04-27T13:09:36.046Z,95203.53
2019-04-27T13:12:03.692Z,95204.80
2019-04-27T13:14:31.295Z,95194.67
2019-04-27T13:16:58.684Z,95198.80
2019-04-27T13:19:26.137Z,95191.89
2019-04-27T13:21:55.910Z,95192.57
2019-04-27T13:24:23.829Z,95187.98
2019-04-27T13:26:51.426Z,95185.03
2019-04-27T13:29:18.904Z,95170.16
2019-04-27T13:31:46.308Z,95183.27
2019-04-27T13:34:13.743Z,95169.99
2019-04-27T13:36:41.160Z,95176.77
2019-04-27T13:39:08.718Z,95163.09
2019-04-27T13:41:36.094Z,95159.77
2019-04-27T13:44:03.398Z,95153.76
2019-04-27T13:46:49.071Z,95147.49
2019-04-27T13:49:29.470Z,95149.34
2019-04-27T13:52:06.100Z,95146.11
2019-04-27T13:54:34.504Z,95135.41
2019-04-27T13:57:02.112Z,95135.76
2019-04-27T13:59:29.661Z,95123.08
2019-04-27T14:01:57.094Z,95116.84
2019-04-27T14:04:24.780Z,95101.87
2019-04-27T14:06:52.284Z,95105.34
2019-04-27T14:09:20.056Z,95104.73
2019-04-27T14:11:48.275Z,95090.93
2019-04-27T14:14:16.062Z,95079.45
2019-04-27T14:16:44.012Z,95079.35
2019-04-27T14:19:12.165Z,95082.69
2019-04-27T14:21:41.006Z,95083.34
2019-04-27T14:24:09.067Z,95074.56
2019-04-27T14:26:38.469Z,95073.02
2019-04-27T14:29:06.298Z,95072.86
2019-04-27T14:31:34.352Z,95075.04
2019-04-27T14:34:02.138Z,95071.19
2019-04-27T14:36:29.956Z,95070.59
2019-04-27T14:38:58.875Z,95070.91
2019-04-27T14:41:28.208Z,95064.63
2019-04-27T14:44:07.397Z,95058.50
2019-04-27T14:46:25.742Z,95061.13
2019-04-27T14:48:53.388Z,95063.61
2019-04-27T14:51:25.642Z,95063.78
2019-04-27T14:53:53.802Z,95056.69
2019-04-27T14:56:21.407Z,95066.39
2019-04-27T14:58:49.507Z,95055.66
2019-04-27T15:01:20.571Z,95060.31
2019-04-27T15:03:48.911Z,95057.69
2019-04-27T15:06:16.868Z,95060.48
2019-04-27T15:08:44.701Z,95055.05
2019-04-27T15:11:17.428Z,95054.69
2019-04-27T15:13:42.976Z,95054.02
2019-04-27T15:16:11.758Z,95053.65
2019-04-27T15:18:45.182Z,95055.85
2019-04-27T15:21:15.561Z,95048.41
2019-04-27T15:23:48.326Z,95050.41
2019-04-27T15:26:20.276Z,95048.72
2019-04-27T15:28:49.451Z,95053.14
2019-04-27T15:31:27.209Z,95052.83
2019-04-27T15:34:18.332Z,95059.05
2019-04-27T15:37:02.704Z,95067.73
2019-04-27T15:39:50.470Z,95077.28
2019-04-27T15:42:26.039Z,95085.65
2019-04-27T15:44:53.815Z,95091.33
2019-04-27T15:47:22.162Z,95091.75
2019-04-27T15:49:54.632Z,95096.12
2019-04-27T15:52:25.586Z,95095.05
2019-04-27T15:54:51.590Z,95108.58
2019-04-27T15:57:21.603Z,95110.57
2019-04-27T15:59:51.572Z,95108.02
2019-04-27T16:02:19.579Z,95113.86
2019-04-27T16:04:49.789Z,95112.36
2019-04-27T16:07:24.666Z,95107.30
2019-04-27T16:09:49.379Z,95098.97
2019-04-27T16:12:18.122Z,95093.97
2019-04-27T16:14:47.954Z,95089.34
2019-04-27T16:17:17.918Z,95081.83
2019-04-27T16:19:48.911Z,95088.80
2019-04-27T16:22:15.429Z,95088.12
2019-04-27T16:24:43.155Z,95079.36
2019-04-27T16:27:10.986Z,95071.39
2019-04-27T16:29:39.028Z,95073.91
2019-04-27T16:32:11.238Z,95068.55
2019-04-27T16:34:41.134Z,95075.70
2019-04-27T16:37:09.759Z,95081.88
2019-04-27T16:39:39.660Z,95075.28
2019-04-27T16:42:14.103Z,95073.07
2019-04-27T16:44:44.399Z,95076.31
2019-04-27T16:47:12.605Z,95072.88
2019-04-27T16:49:40.126Z,95059.85
2019-04-27T16:52:11.550Z,95056.66
2019-04-27T16:54:39.553Z,95049.75
2019-04-27T16:57:07.977Z,95053.02
2019-04-27T16:59:44.161Z,95059.09
2019-04-27T17:02:08.275Z,95063.72
2019-04-27T17:04:36.406Z,95065.09
2019-04-27T17:07:08.767Z,95066.77
2019-04-27T17:09:41.102Z,95061.35
2019-04-27T17:12:05.973Z,95067.72
2019-04-27T17:14:42.873Z,95068.76
2019-04-27T17:17:33.270Z,95072.55
2019-04-27T17:20:03.571Z,95071.20
2019-04-27T17:22:31.454Z,95079.97
2019-04-27T17:24:59.472Z,95072.13
2019-04-27T17:27:41.576Z,95085.20
2019-04-27T17:30:09.540Z,95083.63
2019-04-27T17:33:10.660Z,95080.88
2019-04-27T17:35:41.303Z,95085.30
2019-04-27T17:38:08.696Z,95082.63
2019-04-27T17:40:36.056Z,95080.33
2019-04-27T17:43:08.126Z,95078.57
2019-04-27T17:45:36.238Z,95092.35
2019-04-27T17:48:07.034Z,95089.48
2019-04-27T17:50:34.939Z,95096.88
2019-04-27T17:53:02.829Z,95105.42
2019-04-27T17:55:32.877Z,95097.84
2019-04-27T17:58:05.330Z,95096.15
2019-04-27T18:00:32.892Z,95088.70
2019-04-27T18:03:01.570Z,95096.46
2019-04-27T18:05:29.488Z,95094.41
2019-04-27T18:07:59.674Z,95102.34
2019-04-27T18:10:32.014Z,95101.82
2019-04-27T18:12:59.896Z,95116.41
2019-04-27T18:15:28.730Z,95121.81
2019-04-27T18:18:00.315Z,95122.91
2019-04-27T18:20:28.954Z,95122.63
2019-04-27T18:23:03.279Z,95122.78
2019-04-27T18:25:35.683Z,95123.14
2019-04-27T18:28:14.799Z,95129.87
2019-04-27T18:30:52.880Z,95128.39
2019-04-27T18:33:23.097Z,95134.42
2019-04-27T18:35:50.954Z,95134.80
2019-04-27T18:38:19.329Z,95135.73
2019-04-27T18:40:48.705Z,95141.10
2019-04-27T18:43:18.701Z,95146.98
2019-04-27T18:45:48.876Z,95150.58
2019-04-27T18:48:23.370Z,95151.34
2019-04-27T18:51:02.627Z,95153.97
2019-04-27T18:53:30.544Z,95159.30
2019-04-27T18:56:04.887Z,95159.33
2019-04-27T18:58:28.317Z,95168.87
2019-04-27T19:00:58.294Z,95169.98
2019-04-27T19:03:29.688Z,95162.95
2019-04-27T19:05:59.064Z,95172.39
2019-04-27T19:08:28.134Z,95176.62
2019-04-27T19:10:56.489Z,95186.05
2019-04-27T19:13:24.369Z,95185.66
2019-04-27T19:15:55.034Z,95193.78
2019-04-27T19:18:22.461Z,95197.80
2019-04-27T19:20:52.744Z,95208.29
2019-04-27T19:23:20.564Z,95215.58
2019-04-27T19:26:10.384Z,95216.76
2019-04-27T19:29:08.582Z,95224.49
2019-04-27T19:31:40.349Z,95232.94
2019-04-27T19:34:07.719Z,95240.58
2019-04-27T19:36:35.671Z,95241.88
2019-04-27T19:39:05.231Z,95243.65
2019-04-27T19:41:37.970Z,95258.44
2019-04-27T19:44:05.470Z,95259.29
2019-04-27T19:46:33.991Z,95262.98
2019-04-27T19:49:01.469Z,95269.77
2019-04-27T19:51:30.668Z,95269.52
2019-04-27T19:54:00.734Z,95274.52
2019-04-27T19:56:28.885Z,95286.20
2019-04-27T19:59:00.941Z,95289.75
2019-04-27T20:01:41.875Z,95286.67
2019-04-27T20:04:21.661Z,95287.76
2019-04-27T20:06:49.363Z,95303.48
2019-04-27T20:09:31.860Z,95318.36
2019-04-27T20:12:00.844Z,95316.23
2019-04-27T20:14:32.348Z,95329.02
2019-04-27T20:16:59.826Z,95339.58
2019-04-27T20:19:28.392Z,95337.36
2019-04-27T20:21:55.816Z,95334.10
2019-04-27T20:24:23.188Z,95343.56
2019-04-27T20:26:50.661Z,95330.89
2019-04-27T20:29:18.095Z,95341.92
2019-04-27T20:31:46.592Z,95338.95
2019-04-27T20:34:14.079Z,95361.14
2019-04-27T20:36:45.414Z,95357.73
2019-04-27T20:39:12.867Z,95349.69
2019-04-27T20:41:41.622Z,95359.05
2019-04-27T20:44:11.035Z,95361.88
2019-04-27T20:46:38.390Z,95368.13
2019-04-27T20:49:19.193Z,95373.24
2019-04-27T20:52:08.561Z,95369.84
2019-04-27T20:54:35.958Z,95374.27
2019-04-27T20:57:03.368Z,95373.40
2019-04-27T20:59:30.835Z,95383.93
2019-04-27T21:02:00.627Z,95373.28
2019-04-27T21:04:31.315Z,95379.06
2019-04-27T21:07:02.264Z,95375.86
2019-04-27T21:09:29.685Z,95371.23
2019-04-27T21:11:57.036Z,95381.13
2019-04-27T21:14:24.355Z,95376.31
2019-04-27T21:16:52.847Z,95377.40
2019-04-27T21:19:23.112Z,95365.58
2019-04-27T21:21:51.476Z,95370.83
2019-04-27T21:24:20.771Z,95369.09
2019-04-27T21:26:48.729Z,95365.41
2019-04-27T21:29:16.171Z,95365.66
2019-04-27T21:31:43.515Z,95366.59
2019-04-27T21:34:10.847Z,95365.72
2019-04-27T21:36:38.504Z,95371.02
2019-04-27T21:39:06.621Z,95380.61
2019-04-27T21:41:33.994Z,95378.73
2019-04-27T21:44:01.632Z,95375.33
2019-04-27T21:46:28.990Z,95383.58
2019-04-27T21:48:56.714Z,95370.60
2019-04-27T21:51:24.093Z,95378.39
2019-04-27T21:54:16.872Z,95382.06
2019-04-27T21:56:44.184Z,95394.17
2019-04-27T21:59:11.491Z,95395.84
2019-04-27T22:01:39.062Z,95413.21
2019-04-27T22:04:07.543Z,95417.13
2019-04-27T22:06:35.063Z,95423.14
2019-04-27T22:09:05.694Z,95417.47
2019-04-27T22:11:33.105Z,95430.02
2019-04-27T22:14:01.314Z,95428.78
2019-04-27T22:16:28.828Z,95429.90
2019-04-27T22:18:56.175Z,95434.89
2019-04-27T22:21:23.502Z,95435.27
2019-04-27T22:24:16.232Z,95439.03
2019-04-27T22:26:43.657Z,95456.17
2019-04-27T22:29:12.024Z,95459.50
2019-04-27T22:31:41.465Z,95464.87
2019-04-27T22:34:10.716Z,95472.73
2019-04-27T22:36:38.198Z,95471.41
2019-04-27T22:39:20.906Z,95473.45
2019-04-27T22:42:12.223Z,95481.34
2019-04-27T22:44:45.364Z,95494.52
2019-04-27T22:47:12.950Z,95506.64
2019-04-27T22:49:40.553Z,95500.82
2019-04-27T22:52:07.844Z,95499.55
2019-04-27T22:54:35.184Z,95505.00
2019-04-27T22:57:08.533Z,95511.74
2019-04-27T22:59:58.390Z,95514.98
2019-04-27T23:02:40.815Z,95521.80
2019-04-27T23:05:08.647Z,95519.74
2019-04-27T23:07:36.066Z,95530.36
2019-04-27T23:10:05.478Z,95528.28
2019-04-27T23:12:32.799Z,95526.01
2019-04-27T23:15:00.045Z,95528.02
2019-04-27T23:18:04.928Z,95535.67
2019-04-27T23:20:32.233Z,95534.42
2019-04-27T23:23:01.140Z,95538.80
2019-04-27T23:25:28.802Z,95542.26
2019-04-27T23:27:56.165Z,95546.29
2019-04-27T23:30:45.648Z,95545.64
2019-04-27T23:33:13.072Z,95553.66
2019-04-27T23:35:41.397Z,95547.67
2019-04-27T23:38:17.486Z,95552.72
2019-04-27T23:40:38.159Z,95555.30
2019-04-27T23:43:05.479Z,95559.89
2019-04-27T23:45:32.810Z,95567.34
2019-04-27T23:48:00.126Z,95564.63
2019-04-27T23:50:31.328Z,95561.63
2019-04-27T23:53:18.386Z,95566.66
2019-04-27T23:55:45.682Z,95567.94
2019-04-27T23:58:13.071Z,95566.58
